sensor_id;sensor_type;location;lat;lon;timestamp;P1;durP1;ratioP1;P2;durP2;ratioP2
47151;SDS011;32906;48.542;12.136;2022-08-11T00:02:08;1.48;;;1.17;;
47151;SDS011;32906;48.542;12.136;2022-08-11T00:04:36;1.88;;;1.20;;
47151;SDS011;32906;48.542;12.136;2022-08-11T00:07:03;6.00;;;1.63;;
47151;SDS011;32906;48.542;12.136;2022-08-11T00:09:34;2.50;;;1.10;;
47151;SDS011;32906;48.542;12.136;2022-08-11T00:12:02;2.47;;;1.13;;
47151;SDS011;32906;48.542;12.136;2022-08-11T00:14:30;2.35;;;1.02;;
47151;SDS011;32906;48.542;12.136;2022-08-11T00:17:00;1.88;;;1.10;;
47151;SDS011;32906;48.542;12.136;2022-08-11T00:19:28;1.67;;;0.93;;
47151;SDS011;32906;48.542;12.136;2022-08-11T00:21:57;1.70;;;1.10;;
47151;SDS011;32906;48.542;12.136;2022-08-11T00:24:24;2.53;;;1.00;;
47151;SDS011;32906;48.542;12.136;2022-08-11T00:26:59;2.72;;;0.90;;
47151;SDS011;32906;48.542;12.136;2022-08-11T00:29:27;1.45;;;1.08;;
47151;SDS011;32906;48.542;12.136;2022-08-11T00:31:55;1.13;;;1.02;;
47151;SDS011;32906;48.542;12.136;2022-08-11T00:34:25;1.83;;;1.17;;
47151;SDS011;32906;48.542;12.136;2022-08-11T00:36:55;2.05;;;1.42;;
47151;SDS011;32906;48.542;12.136;2022-08-11T00:39:23;2.15;;;1.20;;
47151;SDS011;32906;48.542;12.136;2022-08-11T00:41:58;2.10;;;1.20;;
47151;SDS011;32906;48.542;12.136;2022-08-11T00:44:44;1.80;;;1.27;;
47151;SDS011;32906;48.542;12.136;2022-08-11T00:47:16;1.33;;;1.08;;
47151;SDS011;32906;48.542;12.136;2022-08-11T00:49:45;1.77;;;1.08;;
47151;SDS011;32906;48.542;12.136;2022-08-11T00:52:25;3.53;;;1.13;;
47151;SDS011;32906;48.542;12.136;2022-08-11T00:58:06;1.70;;;1.20;;
47151;SDS011;32906;48.542;12.136;2022-08-11T01:00:45;2.60;;;1.35;;
47151;SDS011;32906;48.542;12.136;2022-08-11T01:03:23;1.90;;;1.05;;
47151;SDS011;32906;48.542;12.136;2022-08-11T01:08:55;1.83;;;1.52;;
47151;SDS011;32906;48.542;12.136;2022-08-11T01:11:40;1.42;;;1.20;;
47151;SDS011;32906;48.542;12.136;2022-08-11T01:14:24;1.77;;;1.13;;
47151;SDS011;32906;48.542;12.136;2022-08-11T01:17:05;3.05;;;1.25;;
47151;SDS011;32906;48.542;12.136;2022-08-11T01:19:49;1.13;;;1.02;;
47151;SDS011;32906;48.542;12.136;2022-08-11T01:22:27;1.90;;;1.25;;
47151;SDS011;32906;48.542;12.136;2022-08-11T01:30:44;2.03;;;1.33;;
47151;SDS011;32906;48.542;12.136;2022-08-11T01:33:32;1.30;;;1.08;;
47151;SDS011;32906;48.542;12.136;2022-08-11T01:39:09;2.42;;;1.00;;
47151;SDS011;32906;48.542;12.136;2022-08-11T01:41:53;2.75;;;1.48;;
47151;SDS011;32906;48.542;12.136;2022-08-11T01:45:01;2.85;;;1.30;;
47151;SDS011;32906;48.542;12.136;2022-08-11T01:47:32;2.47;;;1.13;;
47151;SDS011;32906;48.542;12.136;2022-08-11T01:50:17;5.30;;;1.30;;
47151;SDS011;32906;48.542;12.136;2022-08-11T01:52:54;2.95;;;1.20;;
47151;SDS011;32906;48.542;12.136;2022-08-11T01:55:27;1.20;;;0.82;;
47151;SDS011;32906;48.542;12.136;2022-08-11T01:58:00;3.22;;;1.42;;
47151;SDS011;32906;48.542;12.136;2022-08-11T02:00:31;1.85;;;1.50;;
47151;SDS011;32906;48.542;12.136;2022-08-11T02:03:07;1.50;;;1.08;;
47151;SDS011;32906;48.542;12.136;2022-08-11T02:05:44;3.33;;;1.15;;
47151;SDS011;32906;48.542;12.136;2022-08-11T02:08:20;2.25;;;1.02;;
47151;SDS011;32906;48.542;12.136;2022-08-11T02:10:54;4.20;;;1.63;;
47151;SDS011;32906;48.542;12.136;2022-08-11T02:13:41;1.83;;;1.15;;
47151;SDS011;32906;48.542;12.136;2022-08-11T02:16:15;3.78;;;1.60;;
47151;SDS011;32906;48.542;12.136;2022-08-11T02:18:45;3.65;;;1.55;;
47151;SDS011;32906;48.542;12.136;2022-08-11T02:21:36;2.47;;;1.38;;
47151;SDS011;32906;48.542;12.136;2022-08-11T02:24:23;2.15;;;1.13;;
47151;SDS011;32906;48.542;12.136;2022-08-11T02:26:54;2.58;;;1.65;;
47151;SDS011;32906;48.542;12.136;2022-08-11T02:29:28;1.55;;;1.08;;
47151;SDS011;32906;48.542;12.136;2022-08-11T02:32:01;2.70;;;1.65;;
47151;SDS011;32906;48.542;12.136;2022-08-11T02:34:52;4.43;;;1.42;;
47151;SDS011;32906;48.542;12.136;2022-08-11T02:37:23;2.63;;;1.50;;
47151;SDS011;32906;48.542;12.136;2022-08-11T02:40:07;1.83;;;1.00;;
47151;SDS011;32906;48.542;12.136;2022-08-11T02:42:39;3.00;;;1.05;;
47151;SDS011;32906;48.542;12.136;2022-08-11T02:45:28;1.67;;;1.13;;
47151;SDS011;32906;48.542;12.136;2022-08-11T02:47:58;1.50;;;1.00;;
47151;SDS011;32906;48.542;12.136;2022-08-11T02:50:48;2.78;;;1.23;;
47151;SDS011;32906;48.542;12.136;2022-08-11T02:53:21;2.17;;;1.10;;
47151;SDS011;32906;48.542;12.136;2022-08-11T02:55:53;1.75;;;1.17;;
47151;SDS011;32906;48.542;12.136;2022-08-11T02:58:29;5.15;;;1.48;;
47151;SDS011;32906;48.542;12.136;2022-08-11T03:03:28;1.98;;;0.98;;
47151;SDS011;32906;48.542;12.136;2022-08-11T03:06:03;1.00;;;0.90;;
47151;SDS011;32906;48.542;12.136;2022-08-11T03:11:21;2.13;;;1.15;;
47151;SDS011;32906;48.542;12.136;2022-08-11T03:14:13;2.17;;;1.23;;
47151;SDS011;32906;48.542;12.136;2022-08-11T03:17:18;1.77;;;1.50;;
47151;SDS011;32906;48.542;12.136;2022-08-11T03:19:50;3.92;;;1.25;;
47151;SDS011;32906;48.542;12.136;2022-08-11T03:22:21;4.07;;;0.90;;
47151;SDS011;32906;48.542;12.136;2022-08-11T03:24:52;3.00;;;1.35;;
47151;SDS011;32906;48.542;12.136;2022-08-11T03:27:26;3.08;;;1.30;;
47151;SDS011;32906;48.542;12.136;2022-08-11T03:30:03;2.22;;;1.00;;
47151;SDS011;32906;48.542;12.136;2022-08-11T03:32:31;1.75;;;1.10;;
47151;SDS011;32906;48.542;12.136;2022-08-11T03:35:02;2.05;;;1.50;;
47151;SDS011;32906;48.542;12.136;2022-08-11T03:37:35;2.10;;;1.35;;
47151;SDS011;32906;48.542;12.136;2022-08-11T03:40:26;1.75;;;1.42;;
47151;SDS011;32906;48.542;12.136;2022-08-11T03:43:17;5.20;;;1.85;;
47151;SDS011;32906;48.542;12.136;2022-08-11T03:45:51;2.75;;;1.75;;
47151;SDS011;32906;48.542;12.136;2022-08-11T03:48:24;1.73;;;1.33;;
47151;SDS011;32906;48.542;12.136;2022-08-11T03:51:01;3.30;;;1.55;;
47151;SDS011;32906;48.542;12.136;2022-08-11T03:53:34;2.58;;;1.50;;
47151;SDS011;32906;48.542;12.136;2022-08-11T03:56:09;2.10;;;1.55;;
47151;SDS011;32906;48.542;12.136;2022-08-11T04:07:11;1.77;;;1.30;;
47151;SDS011;32906;48.542;12.136;2022-08-11T04:09:47;2.45;;;1.63;;
47151;SDS011;32906;48.542;12.136;2022-08-11T04:15:12;3.60;;;1.67;;
47151;SDS011;32906;48.542;12.136;2022-08-11T04:23:52;2.20;;;1.58;;
47151;SDS011;32906;48.542;12.136;2022-08-11T04:26:38;2.58;;;1.58;;
47151;SDS011;32906;48.542;12.136;2022-08-11T04:29:16;3.67;;;2.00;;
47151;SDS011;32906;48.542;12.136;2022-08-11T04:31:58;1.83;;;1.50;;
47151;SDS011;32906;48.542;12.136;2022-08-11T04:34:40;5.10;;;2.03;;
47151;SDS011;32906;48.542;12.136;2022-08-11T04:37:19;3.72;;;1.63;;
47151;SDS011;32906;48.542;12.136;2022-08-11T04:40:07;3.78;;;1.42;;
47151;SDS011;32906;48.542;12.136;2022-08-11T04:45:50;3.53;;;1.75;;
47151;SDS011;32906;48.542;12.136;2022-08-11T04:54:27;4.28;;;1.40;;
47151;SDS011;32906;48.542;12.136;2022-08-11T04:57:18;2.30;;;1.65;;
47151;SDS011;32906;48.542;12.136;2022-08-11T05:00:05;5.57;;;1.90;;
47151;SDS011;32906;48.542;12.136;2022-08-11T05:05:22;5.55;;;1.52;;
47151;SDS011;32906;48.542;12.136;2022-08-11T05:08:16;5.25;;;2.00;;
47151;SDS011;32906;48.542;12.136;2022-08-11T05:10:54;3.42;;;1.52;;
47151;SDS011;32906;48.542;12.136;2022-08-11T05:13:27;3.47;;;1.85;;
47151;SDS011;32906;48.542;12.136;2022-08-11T05:16:14;2.75;;;1.85;;
47151;SDS011;32906;48.542;12.136;2022-08-11T05:19:00;4.38;;;2.40;;
47151;SDS011;32906;48.542;12.136;2022-08-11T05:21:47;3.35;;;2.08;;
47151;SDS011;32906;48.542;12.136;2022-08-11T05:24:36;5.32;;;2.20;;
47151;SDS011;32906;48.542;12.136;2022-08-11T05:27:27;5.75;;;2.17;;
47151;SDS011;32906;48.542;12.136;2022-08-11T05:30:15;4.15;;;1.80;;
47151;SDS011;32906;48.542;12.136;2022-08-11T05:33:01;2.17;;;1.58;;
47151;SDS011;32906;48.542;12.136;2022-08-11T05:35:47;2.00;;;1.63;;
47151;SDS011;32906;48.542;12.136;2022-08-11T05:38:17;3.40;;;1.60;;
47151;SDS011;32906;48.542;12.136;2022-08-11T05:41:02;3.45;;;1.50;;
47151;SDS011;32906;48.542;12.136;2022-08-11T05:43:48;3.10;;;1.77;;
47151;SDS011;32906;48.542;12.136;2022-08-11T05:46:38;2.60;;;1.58;;
47151;SDS011;32906;48.542;12.136;2022-08-11T05:49:25;1.92;;;1.55;;
47151;SDS011;32906;48.542;12.136;2022-08-11T05:52:13;4.07;;;1.40;;
47151;SDS011;32906;48.542;12.136;2022-08-11T05:55:00;6.22;;;1.55;;
47151;SDS011;32906;48.542;12.136;2022-08-11T05:57:45;4.00;;;2.38;;
47151;SDS011;32906;48.542;12.136;2022-08-11T06:00:13;1.95;;;1.30;;
47151;SDS011;32906;48.542;12.136;2022-08-11T06:02:42;3.03;;;1.75;;
47151;SDS011;32906;48.542;12.136;2022-08-11T06:05:10;2.95;;;1.63;;
47151;SDS011;32906;48.542;12.136;2022-08-11T06:07:38;4.47;;;1.52;;
47151;SDS011;32906;48.542;12.136;2022-08-11T06:10:07;3.03;;;1.20;;
47151;SDS011;32906;48.542;12.136;2022-08-11T06:12:35;5.65;;;1.33;;
47151;SDS011;32906;48.542;12.136;2022-08-11T06:15:05;3.00;;;1.35;;
47151;SDS011;32906;48.542;12.136;2022-08-11T06:17:34;4.93;;;1.50;;
47151;SDS011;32906;48.542;12.136;2022-08-11T06:20:04;1.52;;;1.13;;
47151;SDS011;32906;48.542;12.136;2022-08-11T06:22:32;2.75;;;1.20;;
47151;SDS011;32906;48.542;12.136;2022-08-11T06:25:00;2.67;;;1.60;;
47151;SDS011;32906;48.542;12.136;2022-08-11T06:27:28;1.80;;;1.25;;
47151;SDS011;32906;48.542;12.136;2022-08-11T06:29:56;1.73;;;1.50;;
47151;SDS011;32906;48.542;12.136;2022-08-11T06:32:25;3.03;;;1.00;;
47151;SDS011;32906;48.542;12.136;2022-08-11T06:34:57;1.67;;;1.20;;
47151;SDS011;32906;48.542;12.136;2022-08-11T06:37:34;1.70;;;1.15;;
47151;SDS011;32906;48.542;12.136;2022-08-11T06:40:07;2.42;;;1.10;;
47151;SDS011;32906;48.542;12.136;2022-08-11T06:42:42;2.85;;;1.08;;
47151;SDS011;32906;48.542;12.136;2022-08-11T06:45:13;4.83;;;1.33;;
47151;SDS011;32906;48.542;12.136;2022-08-11T06:47:43;13.13;;;4.18;;
47151;SDS011;32906;48.542;12.136;2022-08-11T06:50:14;8.77;;;1.95;;
47151;SDS011;32906;48.542;12.136;2022-08-11T06:53:01;3.95;;;1.83;;
47151;SDS011;32906;48.542;12.136;2022-08-11T06:55:30;5.82;;;2.63;;
47151;SDS011;32906;48.542;12.136;2022-08-11T06:58:19;3.20;;;2.08;;
47151;SDS011;32906;48.542;12.136;2022-08-11T07:01:05;1.88;;;1.20;;
47151;SDS011;32906;48.542;12.136;2022-08-11T07:03:36;2.20;;;1.50;;
47151;SDS011;32906;48.542;12.136;2022-08-11T07:06:08;2.33;;;1.23;;
47151;SDS011;32906;48.542;12.136;2022-08-11T07:12:04;2.97;;;1.10;;
47151;SDS011;32906;48.542;12.136;2022-08-11T07:14:51;2.35;;;1.42;;
47151;SDS011;32906;48.542;12.136;2022-08-11T07:17:40;3.08;;;1.48;;
47151;SDS011;32906;48.542;12.136;2022-08-11T07:20:08;1.98;;;1.20;;
47151;SDS011;32906;48.542;12.136;2022-08-11T07:22:55;3.35;;;1.50;;
47151;SDS011;32906;48.542;12.136;2022-08-11T07:25:37;3.10;;;1.08;;
47151;SDS011;32906;48.542;12.136;2022-08-11T07:28:26;1.58;;;0.98;;
47151;SDS011;32906;48.542;12.136;2022-08-11T07:31:12;3.60;;;1.10;;
47151;SDS011;32906;48.542;12.136;2022-08-11T07:33:43;4.28;;;1.40;;
47151;SDS011;32906;48.542;12.136;2022-08-11T07:36:11;2.50;;;1.00;;
47151;SDS011;32906;48.542;12.136;2022-08-11T07:38:40;2.00;;;0.90;;
47151;SDS011;32906;48.542;12.136;2022-08-11T07:41:09;2.97;;;1.60;;
47151;SDS011;32906;48.542;12.136;2022-08-11T07:43:38;1.55;;;1.10;;
47151;SDS011;32906;48.542;12.136;2022-08-11T07:46:06;3.05;;;0.80;;
47151;SDS011;32906;48.542;12.136;2022-08-11T07:48:51;2.73;;;1.07;;
47151;SDS011;32906;48.542;12.136;2022-08-11T07:51:37;1.42;;;1.00;;
47151;SDS011;32906;48.542;12.136;2022-08-11T07:54:22;1.67;;;0.90;;
47151;SDS011;32906;48.542;12.136;2022-08-11T07:56:50;1.42;;;0.85;;
47151;SDS011;32906;48.542;12.136;2022-08-11T07:59:19;4.88;;;1.00;;
47151;SDS011;32906;48.542;12.136;2022-08-11T08:02:05;2.60;;;1.20;;
47151;SDS011;32906;48.542;12.136;2022-08-11T08:04:50;2.38;;;0.70;;
47151;SDS011;32906;48.542;12.136;2022-08-11T08:07:35;4.25;;;0.95;;
47151;SDS011;32906;48.542;12.136;2022-08-11T08:10:21;1.70;;;0.90;;
47151;SDS011;32906;48.542;12.136;2022-08-11T08:13:06;1.52;;;0.90;;
47151;SDS011;32906;48.542;12.136;2022-08-11T08:15:53;0.82;;;0.80;;
47151;SDS011;32906;48.542;12.136;2022-08-11T08:18:38;2.85;;;0.70;;
47151;SDS011;32906;48.542;12.136;2022-08-11T08:21:06;4.35;;;0.80;;
47151;SDS011;32906;48.542;12.136;2022-08-11T08:23:41;2.22;;;0.65;;
47151;SDS011;32906;48.542;12.136;2022-08-11T08:26:09;3.08;;;1.08;;
47151;SDS011;32906;48.542;12.136;2022-08-11T08:28:51;1.48;;;0.80;;
47151;SDS011;32906;48.542;12.136;2022-08-11T08:31:20;1.38;;;0.80;;
47151;SDS011;32906;48.542;12.136;2022-08-11T08:33:47;2.85;;;0.80;;
47151;SDS011;32906;48.542;12.136;2022-08-11T08:36:14;1.75;;;0.80;;
47151;SDS011;32906;48.542;12.136;2022-08-11T08:38:46;1.15;;;0.63;;
47151;SDS011;32906;48.542;12.136;2022-08-11T08:41:14;2.50;;;0.70;;
47151;SDS011;32906;48.542;12.136;2022-08-11T08:43:44;1.48;;;0.75;;
47151;SDS011;32906;48.542;12.136;2022-08-11T08:46:13;0.98;;;0.70;;
47151;SDS011;32906;48.542;12.136;2022-08-11T08:48:42;5.38;;;1.30;;
47151;SDS011;32906;48.542;12.136;2022-08-11T08:51:11;0.88;;;0.65;;
47151;SDS011;32906;48.542;12.136;2022-08-11T08:53:58;3.17;;;0.80;;
47151;SDS011;32906;48.542;12.136;2022-08-11T08:56:27;1.38;;;1.13;;
47151;SDS011;32906;48.542;12.136;2022-08-11T08:58:54;1.90;;;0.70;;
47151;SDS011;32906;48.542;12.136;2022-08-11T09:01:23;3.45;;;1.00;;
47151;SDS011;32906;48.542;12.136;2022-08-11T09:03:52;0.90;;;0.70;;
47151;SDS011;32906;48.542;12.136;2022-08-11T09:06:19;1.90;;;0.90;;
47151;SDS011;32906;48.542;12.136;2022-08-11T09:08:47;1.30;;;0.60;;
47151;SDS011;32906;48.542;12.136;2022-08-11T09:11:14;1.15;;;0.73;;
47151;SDS011;32906;48.542;12.136;2022-08-11T09:14:00;1.77;;;0.70;;
47151;SDS011;32906;48.542;12.136;2022-08-11T09:16:28;2.08;;;0.60;;
47151;SDS011;32906;48.542;12.136;2022-08-11T09:18:57;1.45;;;0.70;;
47151;SDS011;32906;48.542;12.136;2022-08-11T09:21:26;4.85;;;0.77;;
47151;SDS011;32906;48.542;12.136;2022-08-11T09:23:53;1.20;;;0.70;;
47151;SDS011;32906;48.542;12.136;2022-08-11T09:26:39;0.90;;;0.57;;
47151;SDS011;32906;48.542;12.136;2022-08-11T09:29:25;2.50;;;1.00;;
47151;SDS011;32906;48.542;12.136;2022-08-11T09:31:53;2.83;;;0.90;;
47151;SDS011;32906;48.542;12.136;2022-08-11T09:34:22;2.72;;;0.75;;
47151;SDS011;32906;48.542;12.136;2022-08-11T09:36:50;7.22;;;0.88;;
47151;SDS011;32906;48.542;12.136;2022-08-11T09:39:36;1.85;;;0.80;;
47151;SDS011;32906;48.542;12.136;2022-08-11T09:42:22;1.17;;;0.80;;
47151;SDS011;32906;48.542;12.136;2022-08-11T09:45:10;1.92;;;0.93;;
47151;SDS011;32906;48.542;12.136;2022-08-11T09:47:37;2.65;;;0.60;;
47151;SDS011;32906;48.542;12.136;2022-08-11T09:50:08;1.00;;;0.65;;
47151;SDS011;32906;48.542;12.136;2022-08-11T09:52:36;0.60;;;0.35;;
47151;SDS011;32906;48.542;12.136;2022-08-11T09:55:05;3.72;;;0.70;;
47151;SDS011;32906;48.542;12.136;2022-08-11T09:57:37;1.02;;;0.55;;
47151;SDS011;32906;48.542;12.136;2022-08-11T10:00:26;2.20;;;0.80;;
47151;SDS011;32906;48.542;12.136;2022-08-11T10:02:54;2.35;;;0.50;;
47151;SDS011;32906;48.542;12.136;2022-08-11T10:05:23;1.50;;;0.88;;
47151;SDS011;32906;48.542;12.136;2022-08-11T10:08:08;1.85;;;0.88;;
47151;SDS011;32906;48.542;12.136;2022-08-11T10:10:37;0.98;;;0.50;;
47151;SDS011;32906;48.542;12.136;2022-08-11T10:13:06;2.83;;;0.60;;
47151;SDS011;32906;48.542;12.136;2022-08-11T10:15:33;1.73;;;0.70;;
47151;SDS011;32906;48.542;12.136;2022-08-11T10:18:05;2.47;;;0.93;;
47151;SDS011;32906;48.542;12.136;2022-08-11T10:20:54;2.33;;;0.80;;
47151;SDS011;32906;48.542;12.136;2022-08-11T10:23:22;3.33;;;0.93;;
47151;SDS011;32906;48.542;12.136;2022-08-11T10:28:53;0.85;;;0.50;;
47151;SDS011;32906;48.542;12.136;2022-08-11T10:31:21;1.27;;;0.60;;
47151;SDS011;32906;48.542;12.136;2022-08-11T10:34:06;2.40;;;0.63;;
47151;SDS011;32906;48.542;12.136;2022-08-11T10:36:37;1.13;;;0.70;;
47151;SDS011;32906;48.542;12.136;2022-08-11T10:39:09;1.10;;;0.70;;
47151;SDS011;32906;48.542;12.136;2022-08-11T10:41:39;0.88;;;0.70;;
47151;SDS011;32906;48.542;12.136;2022-08-11T10:44:24;1.73;;;0.63;;
47151;SDS011;32906;48.542;12.136;2022-08-11T10:46:52;2.88;;;0.75;;
47151;SDS011;32906;48.542;12.136;2022-08-11T10:49:37;0.95;;;0.90;;
47151;SDS011;32906;48.542;12.136;2022-08-11T10:52:07;0.80;;;0.55;;
47151;SDS011;32906;48.542;12.136;2022-08-11T10:54:52;1.45;;;0.70;;
47151;SDS011;32906;48.542;12.136;2022-08-11T10:57:37;0.80;;;0.60;;
47151;SDS011;32906;48.542;12.136;2022-08-11T11:00:22;1.48;;;0.55;;
47151;SDS011;32906;48.542;12.136;2022-08-11T11:02:49;4.22;;;0.82;;
47151;SDS011;32906;48.542;12.136;2022-08-11T11:05:20;3.55;;;0.65;;
47151;SDS011;32906;48.542;12.136;2022-08-11T11:07:51;0.77;;;0.50;;
47151;SDS011;32906;48.542;12.136;2022-08-11T11:10:21;4.10;;;0.63;;
47151;SDS011;32906;48.542;12.136;2022-08-11T11:12:50;1.48;;;0.63;;
47151;SDS011;32906;48.542;12.136;2022-08-11T11:15:36;1.10;;;0.50;;
47151;SDS011;32906;48.542;12.136;2022-08-11T11:18:25;2.67;;;0.77;;
47151;SDS011;32906;48.542;12.136;2022-08-11T11:20:54;2.70;;;0.40;;
47151;SDS011;32906;48.542;12.136;2022-08-11T11:23:26;4.03;;;0.60;;
47151;SDS011;32906;48.542;12.136;2022-08-11T11:25:57;1.50;;;0.57;;
47151;SDS011;32906;48.542;12.136;2022-08-11T11:28:41;4.97;;;0.73;;
47151;SDS011;32906;48.542;12.136;2022-08-11T11:31:12;1.20;;;0.65;;
47151;SDS011;32906;48.542;12.136;2022-08-11T11:33:54;1.17;;;0.65;;
47151;SDS011;32906;48.542;12.136;2022-08-11T11:36:25;1.65;;;0.43;;
47151;SDS011;32906;48.542;12.136;2022-08-11T11:38:55;3.10;;;0.60;;
47151;SDS011;32906;48.542;12.136;2022-08-11T11:41:23;0.90;;;0.50;;
47151;SDS011;32906;48.542;12.136;2022-08-11T11:43:52;0.70;;;0.40;;
47151;SDS011;32906;48.542;12.136;2022-08-11T11:46:20;1.98;;;0.60;;
47151;SDS011;32906;48.542;12.136;2022-08-11T11:48:47;1.90;;;0.50;;
47151;SDS011;32906;48.542;12.136;2022-08-11T11:51:15;1.38;;;0.82;;
47151;SDS011;32906;48.542;12.136;2022-08-11T11:53:43;1.10;;;0.70;;
47151;SDS011;32906;48.542;12.136;2022-08-11T11:56:12;2.08;;;0.45;;
47151;SDS011;32906;48.542;12.136;2022-08-11T11:58:40;0.90;;;0.45;;
47151;SDS011;32906;48.542;12.136;2022-08-11T12:01:26;1.30;;;0.70;;
47151;SDS011;32906;48.542;12.136;2022-08-11T12:03:54;1.10;;;0.55;;
47151;SDS011;32906;48.542;12.136;2022-08-11T12:06:22;3.95;;;0.60;;
47151;SDS011;32906;48.542;12.136;2022-08-11T12:08:51;3.88;;;1.60;;
47151;SDS011;32906;48.542;12.136;2022-08-11T12:11:21;1.60;;;0.68;;
47151;SDS011;32906;48.542;12.136;2022-08-11T12:14:07;0.95;;;0.50;;
47151;SDS011;32906;48.542;12.136;2022-08-11T12:16:35;0.57;;;0.30;;
47151;SDS011;32906;48.542;12.136;2022-08-11T12:19:04;1.33;;;0.52;;
47151;SDS011;32906;48.542;12.136;2022-08-11T12:21:32;3.05;;;0.60;;
47151;SDS011;32906;48.542;12.136;2022-08-11T12:24:00;4.00;;;0.60;;
47151;SDS011;32906;48.542;12.136;2022-08-11T12:26:46;1.13;;;0.63;;
47151;SDS011;32906;48.542;12.136;2022-08-11T12:29:32;1.05;;;0.50;;
47151;SDS011;32906;48.542;12.136;2022-08-11T12:31:59;0.90;;;0.50;;
47151;SDS011;32906;48.542;12.136;2022-08-11T12:34:27;0.80;;;0.45;;
47151;SDS011;32906;48.542;12.136;2022-08-11T12:36:56;3.63;;;0.47;;
47151;SDS011;32906;48.542;12.136;2022-08-11T12:39:25;1.00;;;0.50;;
47151;SDS011;32906;48.542;12.136;2022-08-11T12:42:08;0.90;;;0.40;;
47151;SDS011;32906;48.542;12.136;2022-08-11T12:44:54;1.50;;;0.57;;
47151;SDS011;32906;48.542;12.136;2022-08-11T12:47:40;1.02;;;0.57;;
47151;SDS011;32906;48.542;12.136;2022-08-11T12:50:22;1.85;;;0.40;;
47151;SDS011;32906;48.542;12.136;2022-08-11T12:53:07;1.58;;;0.43;;
47151;SDS011;32906;48.542;12.136;2022-08-11T12:55:37;1.25;;;0.50;;
47151;SDS011;32906;48.542;12.136;2022-08-11T12:58:35;4.53;;;1.00;;
47151;SDS011;32906;48.542;12.136;2022-08-11T13:01:07;2.30;;;0.40;;
47151;SDS011;32906;48.542;12.136;2022-08-11T13:03:52;0.70;;;0.40;;
47151;SDS011;32906;48.542;12.136;2022-08-11T13:06:37;0.90;;;0.40;;
47151;SDS011;32906;48.542;12.136;2022-08-11T13:09:05;0.90;;;0.40;;
47151;SDS011;32906;48.542;12.136;2022-08-11T13:11:33;0.55;;;0.40;;
47151;SDS011;32906;48.542;12.136;2022-08-11T13:14:21;0.68;;;0.43;;
47151;SDS011;32906;48.542;12.136;2022-08-11T13:16:48;2.50;;;0.60;;
47151;SDS011;32906;48.542;12.136;2022-08-11T13:19:34;0.85;;;0.47;;
47151;SDS011;32906;48.542;12.136;2022-08-11T13:22:02;1.48;;;0.50;;
47151;SDS011;32906;48.542;12.136;2022-08-11T13:24:31;1.30;;;0.50;;
47151;SDS011;32906;48.542;12.136;2022-08-11T13:26:59;0.88;;;0.47;;
47151;SDS011;32906;48.542;12.136;2022-08-11T13:29:28;1.00;;;0.50;;
47151;SDS011;32906;48.542;12.136;2022-08-11T13:31:56;3.80;;;0.60;;
47151;SDS011;32906;48.542;12.136;2022-08-11T13:34:24;1.05;;;0.40;;
47151;SDS011;32906;48.542;12.136;2022-08-11T13:36:53;0.75;;;0.40;;
47151;SDS011;32906;48.542;12.136;2022-08-11T13:39:20;1.77;;;0.40;;
47151;SDS011;32906;48.542;12.136;2022-08-11T13:41:48;2.35;;;0.45;;
47151;SDS011;32906;48.542;12.136;2022-08-11T13:44:16;0.80;;;0.57;;
47151;SDS011;32906;48.542;12.136;2022-08-11T13:46:45;1.13;;;0.63;;
47151;SDS011;32906;48.542;12.136;2022-08-11T13:49:13;0.90;;;0.40;;
47151;SDS011;32906;48.542;12.136;2022-08-11T13:51:42;1.05;;;0.40;;
47151;SDS011;32906;48.542;12.136;2022-08-11T13:54:11;0.60;;;0.50;;
47151;SDS011;32906;48.542;12.136;2022-08-11T13:56:43;1.10;;;0.50;;
47151;SDS011;32906;48.542;12.136;2022-08-11T13:59:12;0.45;;;0.30;;
47151;SDS011;32906;48.542;12.136;2022-08-11T14:01:47;0.30;;;0.30;;
47151;SDS011;32906;48.542;12.136;2022-08-11T14:04:16;3.28;;;0.40;;
47151;SDS011;32906;48.542;12.136;2022-08-11T14:06:49;2.05;;;0.40;;
47151;SDS011;32906;48.542;12.136;2022-08-11T14:09:18;4.22;;;1.10;;
47151;SDS011;32906;48.542;12.136;2022-08-11T14:11:49;0.80;;;0.30;;
47151;SDS011;32906;48.542;12.136;2022-08-11T14:14:34;0.60;;;0.43;;
47151;SDS011;32906;48.542;12.136;2022-08-11T14:17:04;6.03;;;1.13;;
47151;SDS011;32906;48.542;12.136;2022-08-11T14:19:34;2.75;;;0.65;;
47151;SDS011;32906;48.542;12.136;2022-08-11T14:22:03;2.17;;;0.60;;
47151;SDS011;32906;48.542;12.136;2022-08-11T14:24:39;1.52;;;0.40;;
47151;SDS011;32906;48.542;12.136;2022-08-11T14:27:08;1.80;;;0.50;;
47151;SDS011;32906;48.542;12.136;2022-08-11T14:29:36;1.00;;;0.40;;
47151;SDS011;32906;48.542;12.136;2022-08-11T14:32:06;0.73;;;0.30;;
47151;SDS011;32906;48.542;12.136;2022-08-11T14:34:35;1.58;;;0.30;;
47151;SDS011;32906;48.542;12.136;2022-08-11T14:37:05;2.92;;;0.70;;
47151;SDS011;32906;48.542;12.136;2022-08-11T14:39:37;7.18;;;1.58;;
47151;SDS011;32906;48.542;12.136;2022-08-11T14:42:06;5.95;;;1.00;;
47151;SDS011;32906;48.542;12.136;2022-08-11T14:44:51;2.55;;;0.60;;
47151;SDS011;32906;48.542;12.136;2022-08-11T14:47:39;0.93;;;0.52;;
47151;SDS011;32906;48.542;12.136;2022-08-11T14:50:10;3.70;;;0.60;;
47151;SDS011;32906;48.542;12.136;2022-08-11T14:52:43;1.08;;;0.40;;
47151;SDS011;32906;48.542;12.136;2022-08-11T14:55:12;1.88;;;0.50;;
47151;SDS011;32906;48.542;12.136;2022-08-11T14:57:57;1.77;;;0.60;;
47151;SDS011;32906;48.542;12.136;2022-08-11T15:00:24;0.95;;;0.50;;
47151;SDS011;32906;48.542;12.136;2022-08-11T15:02:53;2.95;;;0.55;;
47151;SDS011;32906;48.542;12.136;2022-08-11T15:05:37;0.63;;;0.47;;
47151;SDS011;32906;48.542;12.136;2022-08-11T15:08:06;2.15;;;0.50;;
47151;SDS011;32906;48.542;12.136;2022-08-11T15:10:34;0.80;;;0.65;;
47151;SDS011;32906;48.542;12.136;2022-08-11T15:13:01;2.38;;;0.60;;
47151;SDS011;32906;48.542;12.136;2022-08-11T15:15:29;1.10;;;0.40;;
47151;SDS011;32906;48.542;12.136;2022-08-11T15:18:12;1.00;;;0.60;;
47151;SDS011;32906;48.542;12.136;2022-08-11T15:20:40;1.05;;;0.50;;
47151;SDS011;32906;48.542;12.136;2022-08-11T15:23:26;0.73;;;0.40;;
47151;SDS011;32906;48.542;12.136;2022-08-11T15:26:12;1.17;;;0.47;;
47151;SDS011;32906;48.542;12.136;2022-08-11T15:28:41;1.05;;;0.40;;
47151;SDS011;32906;48.542;12.136;2022-08-11T15:31:28;2.20;;;0.40;;
47151;SDS011;32906;48.542;12.136;2022-08-11T15:34:15;0.80;;;0.73;;
47151;SDS011;32906;48.542;12.136;2022-08-11T15:37:01;0.63;;;0.40;;
47151;SDS011;32906;48.542;12.136;2022-08-11T15:39:48;0.52;;;0.40;;
47151;SDS011;32906;48.542;12.136;2022-08-11T15:42:34;0.50;;;0.40;;
47151;SDS011;32906;48.542;12.136;2022-08-11T15:45:24;0.95;;;0.32;;
47151;SDS011;32906;48.542;12.136;2022-08-11T15:48:10;0.40;;;0.30;;
47151;SDS011;32906;48.542;12.136;2022-08-11T15:50:40;1.05;;;0.28;;
47151;SDS011;32906;48.542;12.136;2022-08-11T15:53:08;0.60;;;0.40;;
47151;SDS011;32906;48.542;12.136;2022-08-11T15:55:37;0.73;;;0.32;;
47151;SDS011;32906;48.542;12.136;2022-08-11T15:58:06;1.10;;;0.50;;
47151;SDS011;32906;48.542;12.136;2022-08-11T16:00:52;1.55;;;0.50;;
47151;SDS011;32906;48.542;12.136;2022-08-11T16:03:40;0.77;;;0.30;;
47151;SDS011;32906;48.542;12.136;2022-08-11T16:06:27;0.68;;;0.40;;
47151;SDS011;32906;48.542;12.136;2022-08-11T16:08:55;1.15;;;0.40;;
47151;SDS011;32906;48.542;12.136;2022-08-11T16:11:30;2.80;;;0.35;;
47151;SDS011;32906;48.542;12.136;2022-08-11T16:13:58;2.35;;;0.40;;
47151;SDS011;32906;48.542;12.136;2022-08-11T16:16:44;1.17;;;0.40;;
47151;SDS011;32906;48.542;12.136;2022-08-11T16:19:11;1.33;;;0.70;;